createdAt,value
2023-05-01T00:02:02.022Z,8.47
2023-05-01T00:04:29.074Z,8.97
2023-05-01T00:06:55.741Z,8.90
2023-05-01T00:09:22.436Z,8.63
2023-05-01T00:11:49.074Z,8.90
2023-05-01T00:14:15.763Z,9.53
2023-05-01T00:16:42.847Z,8.87
2023-05-01T00:19:09.568Z,9.23
2023-05-01T00:21:36.181Z,9.40
2023-05-01T00:24:02.854Z,9.13
2023-05-01T00:26:31.518Z,8.80
2023-05-01T00:28:58.617Z,9.27
2023-05-01T00:31:25.973Z,9.33
2023-05-01T00:33:54.339Z,9.43
2023-05-01T00:36:20.967Z,9.40
2023-05-01T00:38:47.877Z,9.00
2023-05-01T00:41:14.640Z,8.20
2023-05-01T00:43:41.355Z,8.57
2023-05-01T00:46:08.640Z,9.20
2023-05-01T00:48:36.047Z,8.77
2023-05-01T00:51:05.140Z,8.83
2023-05-01T00:53:33.610Z,9.73
2023-05-01T00:56:01.004Z,8.27
2023-05-01T00:58:28.191Z,8.97
2023-05-01T01:00:55.484Z,9.70
2023-05-01T01:03:22.159Z,9.30
2023-05-01T01:05:53.839Z,9.73
2023-05-01T01:08:28.137Z,8.93
2023-05-01T01:11:21.802Z,8.30
2023-05-01T01:14:06.823Z,9.27
2023-05-01T01:16:46.652Z,9.27
2023-05-01T01:19:40.426Z,9.43
2023-05-01T01:22:11.952Z,8.70
2023-05-01T01:24:53.946Z,9.27
2023-05-01T01:27:31.292Z,9.17
2023-05-01T01:30:22.918Z,8.33
2023-05-01T01:33:18.244Z,7.93
2023-05-01T01:35:53.851Z,8.93
2023-05-01T01:38:23.992Z,8.40
2023-05-01T01:41:01.304Z,9.23
2023-05-01T01:43:31.709Z,9.00
2023-05-01T01:46:02.267Z,9.03
2023-05-01T01:48:36.440Z,8.70
2023-05-01T01:51:09.261Z,8.23
2023-05-01T01:53:37.897Z,8.10
2023-05-01T01:56:06.352Z,8.10
2023-05-01T01:58:35.921Z,8.37
2023-05-01T02:01:03.917Z,8.33
2023-05-01T02:03:34.054Z,8.67
2023-05-01T02:06:01.582Z,8.67
2023-05-01T02:08:30.905Z,8.83
2023-05-01T02:11:01.844Z,8.03
2023-05-01T02:13:30.425Z,8.27
2023-05-01T02:16:03.182Z,8.17
2023-05-01T02:18:31.251Z,7.87
2023-05-01T02:21:00.186Z,8.03
2023-05-01T02:23:31.036Z,8.10
2023-05-01T02:26:00.915Z,8.17
2023-05-01T02:28:29.961Z,8.40
2023-05-01T02:30:57.477Z,8.40
2023-05-01T02:33:24.193Z,8.60
2023-05-01T02:35:50.800Z,8.33
2023-05-01T02:38:18.654Z,8.33
2023-05-01T02:40:50.681Z,8.30
2023-05-01T02:43:20.480Z,7.93
2023-05-01T02:45:48.238Z,8.23
2023-05-01T02:48:18.906Z,8.23
2023-05-01T02:50:46.600Z,8.90
2023-05-01T02:53:13.638Z,8.20
2023-05-01T02:55:49.056Z,8.63
2023-05-01T02:58:17.099Z,8.20
2023-05-01T03:00:44.847Z,8.83
2023-05-01T03:03:12.262Z,8.17
2023-05-01T03:05:39.669Z,8.20
2023-05-01T03:08:06.850Z,8.47
2023-05-01T03:10:34.377Z,7.60
2023-05-01T03:13:01.231Z,7.83
2023-05-01T03:15:27.882Z,7.70
2023-05-01T03:17:54.585Z,7.60
2023-05-01T03:20:21.687Z,7.33
2023-05-01T03:22:48.363Z,8.00
2023-05-01T03:25:15.513Z,7.37
2023-05-01T03:27:42.571Z,7.67
2023-05-01T03:30:10.634Z,8.30
2023-05-01T03:32:40.673Z,8.40
2023-05-01T03:35:13.648Z,8.87
2023-05-01T03:37:40.427Z,7.90
2023-05-01T03:40:07.942Z,8.27
2023-05-01T03:43:10.014Z,8.03
2023-05-01T03:45:37.075Z,8.07
2023-05-01T03:48:03.958Z,7.77
2023-05-01T03:50:32.097Z,7.60
2023-05-01T03:52:59.008Z,7.63
2023-05-01T03:55:25.666Z,7.27
2023-05-01T03:57:52.878Z,7.53
2023-05-01T04:00:20.342Z,6.87
2023-05-01T04:02:47.636Z,7.20
2023-05-01T04:05:19.185Z,6.90
2023-05-01T04:07:50.685Z,7.40
2023-05-01T04:10:17.653Z,7.40
2023-05-01T04:12:52.316Z,7.37
2023-05-01T04:15:19.159Z,6.97
2023-05-01T04:17:46.228Z,7.30
2023-05-01T04:20:12.961Z,7.53
2023-05-01T04:22:40.274Z,6.67
2023-05-01T04:25:09.042Z,7.13
2023-05-01T04:27:35.824Z,7.23
2023-05-01T04:30:02.498Z,7.33
2023-05-01T04:32:30.976Z,7.77
2023-05-01T04:34:57.984Z,7.30
2023-05-01T04:37:24.751Z,7.40
2023-05-01T04:39:51.432Z,7.83
2023-05-01T04:42:20.607Z,7.27
2023-05-01T04:44:47.417Z,7.30
2023-05-01T04:47:14.674Z,7.10
2023-05-01T04:49:41.329Z,6.80
2023-05-01T04:52:08.034Z,6.57
2023-05-01T04:54:54.953Z,6.43
2023-05-01T04:57:23.793Z,7.30
2023-05-01T04:59:50.676Z,6.43
2023-05-01T05:02:17.400Z,6.00
2023-05-01T05:04:44.133Z,7.00
2023-05-01T05:07:10.919Z,6.70
2023-05-01T05:10:00.776Z,6.47
2023-05-01T05:12:27.816Z,8.00
2023-05-01T05:14:54.535Z,6.80
2023-05-01T05:17:21.425Z,6.20
2023-05-01T05:19:48.224Z,6.33
2023-05-01T05:22:15.727Z,7.67
2023-05-01T05:25:04.473Z,5.97
2023-05-01T05:27:36.455Z,7.03
2023-05-01T05:30:07.260Z,5.97
2023-05-01T05:32:35.482Z,6.40
2023-05-01T05:35:03.075Z,5.80
2023-05-01T05:37:29.968Z,5.67
2023-05-01T05:39:57.081Z,5.57
2023-05-01T05:42:24.260Z,5.50
2023-05-01T05:44:51.029Z,5.73
2023-05-01T05:47:17.731Z,5.80
2023-05-01T05:49:44.393Z,6.53
2023-05-01T05:52:11.165Z,5.50
2023-05-01T05:54:39.022Z,5.53
2023-05-01T05:57:05.787Z,6.37
2023-05-01T05:59:33.318Z,5.90
2023-05-01T06:02:00.476Z,5.80
2023-05-01T06:04:27.247Z,5.47
2023-05-01T06:06:54.511Z,6.57
2023-05-01T06:09:21.620Z,5.40
2023-05-01T06:11:48.353Z,7.17
2023-05-01T06:14:16.670Z,7.30
2023-05-01T06:16:44.152Z,7.73
2023-05-01T06:19:12.164Z,5.37
2023-05-01T06:21:39.739Z,4.90
2023-05-01T06:24:06.697Z,5.83
2023-05-01T06:26:41.838Z,5.87
2023-05-01T06:29:08.538Z,6.30
2023-05-01T06:31:35.406Z,5.83
2023-05-01T06:34:02.197Z,6.87
2023-05-01T06:36:34.991Z,6.27
2023-05-01T06:39:01.980Z,5.43
2023-05-01T06:41:30.532Z,5.23
2023-05-01T06:43:58.572Z,7.33
2023-05-01T06:46:26.544Z,6.33
2023-05-01T06:48:53.275Z,5.03
2023-05-01T06:51:20.033Z,7.03
2023-05-01T06:53:46.709Z,5.20
2023-05-01T06:56:13.389Z,6.87
2023-05-01T06:58:40.139Z,6.23
2023-05-01T07:01:07.945Z,5.60
2023-05-01T07:03:34.614Z,5.17
2023-05-01T07:06:01.360Z,5.47
2023-05-01T07:08:28.340Z,5.33
2023-05-01T07:10:55.063Z,7.87
2023-05-01T07:13:21.760Z,9.43
2023-05-01T07:15:49.154Z,7.53
2023-05-01T07:18:17.140Z,5.70
2023-05-01T07:20:43.903Z,5.83
2023-05-01T07:23:10.608Z,6.03
2023-05-01T07:25:44.453Z,6.13
2023-05-01T07:28:11.280Z,6.00
2023-05-01T07:30:37.934Z,5.90
2023-05-01T07:33:05.999Z,5.90
2023-05-01T07:35:33.040Z,6.20
2023-05-01T07:37:59.754Z,6.83
2023-05-01T07:40:26.393Z,6.37
2023-05-01T07:42:54.581Z,6.00
2023-05-01T07:45:21.459Z,5.93
2023-05-01T07:47:48.164Z,5.80
2023-05-01T07:50:14.889Z,6.73
2023-05-01T07:52:41.552Z,6.33
2023-05-01T07:55:08.912Z,5.90
2023-05-01T07:57:36.263Z,6.13
2023-05-01T08:00:03.181Z,6.37
2023-05-01T08:02:41.163Z,5.90
2023-05-01T08:05:08.375Z,6.10
2023-05-01T08:07:35.079Z,5.50
2023-05-01T08:10:02.085Z,5.57
2023-05-01T08:12:29.706Z,5.93
2023-05-01T08:14:56.367Z,4.20
2023-05-01T08:17:23.005Z,5.40
2023-05-01T08:19:50.383Z,4.10
2023-05-01T08:22:17.058Z,5.03
2023-05-01T08:24:44.106Z,6.10
2023-05-01T08:27:10.883Z,3.90
2023-05-01T08:29:37.534Z,4.50
2023-05-01T08:32:04.149Z,3.97
2023-05-01T08:34:31.051Z,4.60
2023-05-01T08:36:59.570Z,3.73
2023-05-01T08:39:26.303Z,4.53
2023-05-01T08:41:53.167Z,4.10
2023-05-01T08:44:20.791Z,4.37
2023-05-01T08:47:00.526Z,4.77
2023-05-01T08:49:27.536Z,4.17
2023-05-01T08:51:57.037Z,5.23
2023-05-01T08:54:24.501Z,3.70
2023-05-01T08:56:51.844Z,3.70
2023-05-01T08:59:19.551Z,3.93
2023-05-01T09:01:47.328Z,3.90
2023-05-01T09:04:14.868Z,4.03
2023-05-01T09:06:41.795Z,4.93
2023-05-01T09:09:08.483Z,4.70
2023-05-01T09:11:36.748Z,3.80
2023-05-01T09:14:05.670Z,4.13
2023-05-01T09:16:32.917Z,3.47
2023-05-01T09:18:59.804Z,3.87
2023-05-01T09:21:29.255Z,3.50
2023-05-01T09:23:56.252Z,3.60
2023-05-01T09:26:23.017Z,4.13
2023-05-01T09:28:51.783Z,4.17
2023-05-01T09:31:22.944Z,4.43
2023-05-01T09:33:55.061Z,3.67
2023-05-01T09:36:23.106Z,3.80
2023-05-01T09:38:49.830Z,4.10
2023-05-01T09:41:16.883Z,5.60
2023-05-01T09:43:50.426Z,4.00
2023-05-01T09:46:17.385Z,2.93
2023-05-01T09:48:55.185Z,4.20
2023-05-01T09:51:22.645Z,3.47
2023-05-01T09:53:49.969Z,4.17
2023-05-01T09:56:17.415Z,4.37
2023-05-01T09:58:44.584Z,3.80
2023-05-01T10:01:11.464Z,4.63
2023-05-01T10:03:38.431Z,3.33
2023-05-01T10:06:05.630Z,4.17
2023-05-01T10:08:45.994Z,3.90
2023-05-01T10:11:12.817Z,4.17
2023-05-01T10:13:39.557Z,3.27
2023-05-01T10:16:08.650Z,3.63
2023-05-01T10:18:35.970Z,3.10
2023-05-01T10:21:04.192Z,3.10
2023-05-01T10:23:31.137Z,3.17
2023-05-01T10:25:59.439Z,3.47
2023-05-01T10:28:28.860Z,3.30
2023-05-01T10:30:56.383Z,4.00
2023-05-01T10:33:23.547Z,3.43
2023-05-01T10:35:56.853Z,3.20
2023-05-01T10:38:27.123Z,3.00
2023-05-01T10:40:53.795Z,2.90
2023-05-01T10:43:25.794Z,3.10
2023-05-01T10:45:53.705Z,2.90
2023-05-01T10:48:39.142Z,3.20
2023-05-01T10:51:27.812Z,4.00
2023-05-01T10:54:13.929Z,2.90
2023-05-01T10:56:43.105Z,6.07
2023-05-01T10:59:10.605Z,3.93
2023-05-01T11:01:37.771Z,3.83
2023-05-01T11:04:24.591Z,3.40
2023-05-01T11:07:10.938Z,2.70
2023-05-01T11:09:41.335Z,3.37
2023-05-01T11:12:09.497Z,3.60
2023-05-01T11:14:54.621Z,3.70
2023-05-01T11:17:39.939Z,3.67
2023-05-01T11:20:11.432Z,3.00
2023-05-01T11:22:42.811Z,4.40
2023-05-01T11:25:27.432Z,3.10
2023-05-01T11:27:56.706Z,3.00
2023-05-01T11:30:23.358Z,2.78
2023-05-01T11:32:51.132Z,2.88
2023-05-01T11:35:19.061Z,2.92
2023-05-01T11:37:46.250Z,3.20
2023-05-01T11:40:45.396Z,3.13
2023-05-01T11:43:12.784Z,3.13
2023-05-01T11:45:41.482Z,4.05
2023-05-01T11:48:16.478Z,3.17
2023-05-01T11:50:43.325Z,3.00
2023-05-01T11:53:16.003Z,3.88
2023-05-01T11:55:42.953Z,3.30
2023-05-01T11:58:09.591Z,3.03
2023-05-01T12:00:38.149Z,3.10
2023-05-01T12:03:06.861Z,3.25
2023-05-01T12:05:38.188Z,3.35
2023-05-01T12:08:20.581Z,2.72
2023-05-01T12:10:50.469Z,3.10
2023-05-01T12:13:17.195Z,3.08
2023-05-01T12:15:46.175Z,3.15
2023-05-01T12:18:13.980Z,2.92
2023-05-01T12:20:46.264Z,3.58
2023-05-01T12:23:16.226Z,3.35
2023-05-01T12:25:43.937Z,3.75
2023-05-01T12:28:14.268Z,3.10
2023-05-01T12:30:42.144Z,2.90
2023-05-01T12:33:19.292Z,2.47
2023-05-01T12:35:47.850Z,2.70
2023-05-01T12:38:22.384Z,2.50
2023-05-01T12:40:53.941Z,2.97
2023-05-01T12:43:31.468Z,2.58
2023-05-01T12:45:58.754Z,2.55
2023-05-01T12:48:25.805Z,2.92
2023-05-01T12:50:55.592Z,2.80
2023-05-01T12:53:23.646Z,2.97
2023-05-01T12:55:52.193Z,3.95
2023-05-01T12:58:19.260Z,2.67
2023-05-01T13:00:49.905Z,2.90
2023-05-01T13:03:23.468Z,2.58
2023-05-01T13:05:58.318Z,3.10
2023-05-01T13:08:27.266Z,2.13
2023-05-01T13:10:57.081Z,2.38
2023-05-01T13:13:29.467Z,3.03
2023-05-01T13:16:06.211Z,2.78
2023-05-01T13:18:33.924Z,2.50
2023-05-01T13:21:08.764Z,2.20
2023-05-01T13:23:39.517Z,2.35
2023-05-01T13:26:07.604Z,2.67
2023-05-01T13:28:35.648Z,2.90
2023-05-01T13:31:02.585Z,2.55
2023-05-01T13:33:31.423Z,3.45
2023-05-01T13:35:58.260Z,2.47
2023-05-01T13:38:25.273Z,2.78
2023-05-01T13:40:51.903Z,2.40
2023-05-01T13:43:18.632Z,2.72
2023-05-01T13:45:47.329Z,3.20
2023-05-01T13:48:17.108Z,2.83
2023-05-01T13:50:43.810Z,2.13
2023-05-01T13:53:10.457Z,3.15
2023-05-01T13:55:40.124Z,2.40
2023-05-01T13:58:07.287Z,4.35
2023-05-01T14:00:34.270Z,2.47
2023-05-01T14:03:01.092Z,2.42
2023-05-01T14:05:30.655Z,3.08
2023-05-01T14:07:58.904Z,2.40
2023-05-01T14:10:29.872Z,2.10
2023-05-01T14:12:58.777Z,2.70
2023-05-01T14:15:25.692Z,2.92
2023-05-01T14:17:53.043Z,2.10
2023-05-01T14:20:19.936Z,2.20
2023-05-01T14:22:53.591Z,2.30
2023-05-01T14:25:31.610Z,2.42
2023-05-01T14:27:59.390Z,2.30
2023-05-01T14:30:40.212Z,2.88
2023-05-01T14:33:14.120Z,3.15
2023-05-01T14:35:51.527Z,2.80
2023-05-01T14:38:19.622Z,4.25
2023-05-01T14:40:46.511Z,4.97
2023-05-01T14:43:15.080Z,2.05
2023-05-01T14:45:45.404Z,2.60
2023-05-01T14:48:23.181Z,2.65
2023-05-01T14:50:51.021Z,3.50
2023-05-01T14:53:17.742Z,2.50
2023-05-01T14:55:44.548Z,2.67
2023-05-01T14:58:11.205Z,5.00
2023-05-01T15:00:37.877Z,3.20
2023-05-01T15:03:04.638Z,2.50
2023-05-01T15:05:31.456Z,2.70
2023-05-01T15:08:00.435Z,7.47
2023-05-01T15:10:27.080Z,2.22
2023-05-01T15:12:53.747Z,2.50
2023-05-01T15:15:20.688Z,2.20
2023-05-01T15:17:47.373Z,2.78
2023-05-01T15:20:14.067Z,2.95
2023-05-01T15:22:41.125Z,2.10
2023-05-01T15:25:09.937Z,3.20
2023-05-01T15:27:36.626Z,2.60
2023-05-01T15:30:05.267Z,3.80
2023-05-01T15:32:32.191Z,2.50
2023-05-01T15:34:59.190Z,2.38
2023-05-01T15:37:26.129Z,3.03
2023-05-01T15:39:52.852Z,2.42
2023-05-01T15:42:19.934Z,2.35
2023-05-01T15:44:47.736Z,2.33
2023-05-01T15:47:14.893Z,2.78
2023-05-01T15:49:41.608Z,2.97
2023-05-01T15:52:08.354Z,3.65
2023-05-01T15:54:35.324Z,3.70
2023-05-01T15:57:03.217Z,2.78
2023-05-01T15:59:30.607Z,2.85
2023-05-01T16:01:57.539Z,3.10
2023-05-01T16:04:24.168Z,2.40
2023-05-01T16:06:51.311Z,3.37
2023-05-01T16:09:18.998Z,4.37
2023-05-01T16:11:45.657Z,3.00
2023-05-01T16:14:12.765Z,4.17
2023-05-01T16:16:41.847Z,2.47
2023-05-01T16:19:08.716Z,2.40
2023-05-01T16:21:36.888Z,2.70
2023-05-01T16:24:03.837Z,2.53
2023-05-01T16:26:31.495Z,2.77
2023-05-01T16:29:05.349Z,3.13
2023-05-01T16:31:38.947Z,3.60
2023-05-01T16:34:07.186Z,2.90
2023-05-01T16:36:42.996Z,2.53
2023-05-01T16:39:14.605Z,4.10
2023-05-01T16:41:48.528Z,4.40
2023-05-01T16:44:16.622Z,5.03
2023-05-01T16:46:45.590Z,4.10
2023-05-01T16:49:13.704Z,3.60
2023-05-01T16:51:43.809Z,3.10
2023-05-01T16:54:10.851Z,4.07
2023-05-01T16:56:38.416Z,3.60
2023-05-01T16:59:05.097Z,3.63
2023-05-01T17:01:31.762Z,3.87
2023-05-01T17:03:58.572Z,2.70
2023-05-01T17:06:25.368Z,4.23
2023-05-01T17:08:52.249Z,3.23
2023-05-01T17:11:19.093Z,2.67
2023-05-01T17:13:45.822Z,2.90
2023-05-01T17:16:12.547Z,2.60
2023-05-01T17:18:39.227Z,2.83
2023-05-01T17:21:06.803Z,2.90
2023-05-01T17:23:33.452Z,4.30
2023-05-01T17:26:00.593Z,2.90
2023-05-01T17:28:27.317Z,2.77
2023-05-01T17:30:54.124Z,3.33
2023-05-01T17:33:21.149Z,3.93
2023-05-01T17:35:48.248Z,3.33
2023-05-01T17:38:14.889Z,4.50
2023-05-01T17:40:41.578Z,5.53
2023-05-01T17:43:08.222Z,4.70
2023-05-01T17:45:34.841Z,4.00
2023-05-01T17:48:01.779Z,3.87
2023-05-01T17:50:28.402Z,4.10
2023-05-01T17:52:55.062Z,3.73
2023-05-01T17:55:21.815Z,5.20
2023-05-01T17:57:48.558Z,4.70
2023-05-01T18:00:16.320Z,3.30
2023-05-01T18:02:44.881Z,3.37
2023-05-01T18:05:12.390Z,3.50
2023-05-01T18:07:39.052Z,3.90
2023-05-01T18:10:06.303Z,4.77
2023-05-01T18:12:33.350Z,4.40
2023-05-01T18:14:59.972Z,3.70
2023-05-01T18:17:26.833Z,5.37
2023-05-01T18:19:53.478Z,6.50
2023-05-01T18:22:20.270Z,4.57
2023-05-01T18:24:47.056Z,4.20
2023-05-01T18:27:14.459Z,4.00
2023-05-01T18:29:41.126Z,3.40
2023-05-01T18:32:09.366Z,2.97
2023-05-01T18:34:36.699Z,3.43
2023-05-01T18:37:03.341Z,4.53
2023-05-01T18:39:30.299Z,3.20
2023-05-01T18:41:56.872Z,3.20
2023-05-01T18:44:23.570Z,3.20
2023-05-01T18:46:50.246Z,3.50
2023-05-01T18:49:21.058Z,3.40
2023-05-01T18:51:48.641Z,3.90
2023-05-01T18:54:16.135Z,4.03
2023-05-01T18:56:43.062Z,3.70
2023-05-01T18:59:09.660Z,3.50
2023-05-01T19:01:37.089Z,3.47
2023-05-01T19:04:03.818Z,3.07
2023-05-01T19:06:31.368Z,3.30
2023-05-01T19:08:58.400Z,4.50
2023-05-01T19:11:30.272Z,3.90
2023-05-01T19:13:57.077Z,3.47
2023-05-01T19:16:24.715Z,4.40
2023-05-01T19:18:51.888Z,3.40
2023-05-01T19:21:18.556Z,3.10
2023-05-01T19:23:46.567Z,3.00
2023-05-01T19:26:13.797Z,3.23
2023-05-01T19:28:43.459Z,3.03
2023-05-01T19:31:12.429Z,3.37
2023-05-01T19:33:41.221Z,3.97
2023-05-01T19:36:07.811Z,3.00
2023-05-01T19:38:34.555Z,3.50
2023-05-01T19:41:01.367Z,3.10
2023-05-01T19:43:28.017Z,3.10
2023-05-01T19:45:54.782Z,4.67
2023-05-01T19:48:22.028Z,3.00
2023-05-01T19:50:51.100Z,3.17
2023-05-01T19:53:18.389Z,2.97
2023-05-01T19:55:47.183Z,3.20
2023-05-01T19:58:15.118Z,3.27
2023-05-01T20:00:42.033Z,3.10
2023-05-01T20:03:09.800Z,3.00
2023-05-01T20:05:37.317Z,3.23
2023-05-01T20:08:05.094Z,3.30
2023-05-01T20:10:31.800Z,3.30
2023-05-01T20:12:58.523Z,3.23
2023-05-01T20:15:25.849Z,4.80
2023-05-01T20:17:52.843Z,3.30
2023-05-01T20:20:20.100Z,3.07
2023-05-01T20:22:47.056Z,4.30
2023-05-01T20:25:13.847Z,3.87
2023-05-01T20:27:41.222Z,3.60
2023-05-01T20:30:12.743Z,4.00
2023-05-01T20:32:44.255Z,4.73
2023-05-01T20:35:11.644Z,3.93
2023-05-01T20:37:38.361Z,3.90
2023-05-01T20:40:06.421Z,3.93
2023-05-01T20:42:33.097Z,3.17
2023-05-01T20:44:59.751Z,3.57
2023-05-01T20:47:27.463Z,3.50
2023-05-01T20:49:54.620Z,3.60
2023-05-01T20:52:21.441Z,3.77
2023-05-01T20:54:48.075Z,3.90
2023-05-01T20:57:16.516Z,4.00
2023-05-01T20:59:49.999Z,4.83
2023-05-01T21:02:17.430Z,3.87
2023-05-01T21:04:46.212Z,4.83
2023-05-01T21:07:12.934Z,3.70
2023-05-01T21:09:48.975Z,3.87
2023-05-01T21:12:15.756Z,4.30
2023-05-01T21:14:42.437Z,3.70
2023-05-01T21:17:09.479Z,3.77
2023-05-01T21:19:46.721Z,3.90
2023-05-01T21:22:18.668Z,3.73
2023-05-01T21:24:45.573Z,4.63
2023-05-01T21:27:12.429Z,4.53
2023-05-01T21:29:40.817Z,4.27
2023-05-01T21:32:08.127Z,4.07
2023-05-01T21:34:35.007Z,4.00
2023-05-01T21:37:01.666Z,3.90
2023-05-01T21:39:28.427Z,4.77
2023-05-01T21:41:55.167Z,4.00
2023-05-01T21:44:22.776Z,4.00
2023-05-01T21:46:50.947Z,4.70
2023-05-01T21:49:23.060Z,3.90
2023-05-01T21:51:49.921Z,4.57
2023-05-01T21:54:16.705Z,4.63
2023-05-01T21:56:43.536Z,3.67
2023-05-01T21:59:10.329Z,4.60
2023-05-01T22:01:38.673Z,4.23
2023-05-01T22:04:07.107Z,4.13
2023-05-01T22:06:34.051Z,4.40
2023-05-01T22:09:00.842Z,4.40
2023-05-01T22:11:28.078Z,4.37
2023-05-01T22:13:54.791Z,4.67
2023-05-01T22:16:21.523Z,4.37
2023-05-01T22:18:49.751Z,4.00
2023-05-01T22:21:16.911Z,4.27
2023-05-01T22:23:43.554Z,4.40
2023-05-01T22:26:10.460Z,5.00
2023-05-01T22:28:37.147Z,4.47
2023-05-01T22:31:03.901Z,6.10
2023-05-01T22:33:30.661Z,5.80
2023-05-01T22:35:57.390Z,5.50
2023-05-01T22:38:24.048Z,5.80
2023-05-01T22:40:50.709Z,5.03
2023-05-01T22:43:17.414Z,5.33
2023-05-01T22:45:44.082Z,5.60
2023-05-01T22:48:10.883Z,4.60
2023-05-01T22:50:37.585Z,4.40
2023-05-01T22:53:04.284Z,5.07
2023-05-01T22:55:31.106Z,5.33
2023-05-01T22:57:57.769Z,5.20
2023-05-01T23:00:24.571Z,5.17
2023-05-01T23:02:51.520Z,4.83
2023-05-01T23:05:18.457Z,5.10
2023-05-01T23:07:45.188Z,5.07
2023-05-01T23:10:12.469Z,5.10
2023-05-01T23:12:43.806Z,5.47
2023-05-01T23:15:17.001Z,5.10
2023-05-01T23:17:44.237Z,5.20
2023-05-01T23:20:13.451Z,5.00
2023-05-01T23:22:40.626Z,4.40
2023-05-01T23:25:07.833Z,4.93
2023-05-01T23:27:36.177Z,4.97
2023-05-01T23:32:32.469Z,5.13
2023-05-01T23:35:10.152Z,5.30
2023-05-01T23:37:36.876Z,5.10
2023-05-01T23:40:04.333Z,5.07
2023-05-01T23:42:31.517Z,5.00
2023-05-01T23:44:58.200Z,4.77
2023-05-01T23:47:25.029Z,4.77
2023-05-01T23:49:52.035Z,4.80
2023-05-01T23:52:18.751Z,5.00
2023-05-01T23:54:45.392Z,5.33
2023-05-01T23:57:12.146Z,4.63
2023-05-01T23:59:38.836Z,5.27
